createdAt,value
2023-03-31T00:01:15.484Z,11.46
2023-03-31T00:03:45.117Z,11.46
2023-03-31T00:06:18.556Z,11.38
2023-03-31T00:08:51.913Z,11.39
2023-03-31T00:11:22.797Z,11.40
2023-03-31T00:13:51.635Z,11.44
2023-03-31T00:16:20.819Z,11.44
2023-03-31T00:18:51.261Z,11.49
2023-03-31T00:21:29.752Z,11.54
2023-03-31T00:24:01.938Z,11.57
2023-03-31T00:26:31.666Z,11.51
2023-03-31T00:29:01.730Z,11.53
2023-03-31T00:31:31.212Z,11.57
2023-03-31T00:34:00.789Z,11.58
2023-03-31T00:36:31.804Z,11.65
2023-03-31T00:39:04.660Z,11.61
2023-03-31T00:41:33.800Z,11.67
2023-03-31T00:44:18.714Z,11.64
2023-03-31T00:46:56.267Z,11.63
2023-03-31T00:49:34.021Z,11.59
2023-03-31T00:52:13.470Z,11.60
2023-03-31T00:54:47.147Z,11.52
2023-03-31T00:57:17.652Z,11.56
2023-03-31T00:59:53.022Z,11.59
2023-03-31T01:02:22.162Z,11.58
2023-03-31T01:04:57.527Z,11.62
2023-03-31T01:07:38.730Z,11.60
2023-03-31T01:10:09.394Z,11.60
2023-03-31T01:12:45.344Z,11.59
2023-03-31T01:15:14.745Z,11.54
2023-03-31T01:17:45.806Z,11.60
2023-03-31T01:20:32.640Z,11.52
2023-03-31T01:26:49.058Z,11.50
2023-03-31T01:29:45.932Z,11.61
2023-03-31T01:33:04.771Z,11.51
2023-03-31T01:36:27.432Z,11.49
2023-03-31T01:39:44.820Z,11.48
2023-03-31T01:42:26.244Z,11.49
2023-03-31T01:45:05.992Z,11.48
2023-03-31T01:47:44.592Z,11.46
2023-03-31T01:50:26.663Z,11.51
2023-03-31T01:53:07.146Z,11.53
2023-03-31T01:55:42.170Z,11.49
2023-03-31T01:58:20.353Z,11.42
2023-03-31T02:00:57.111Z,11.44
2023-03-31T02:03:34.507Z,11.48
2023-03-31T02:06:13.824Z,11.51
2023-03-31T02:08:50.152Z,11.45
2023-03-31T02:11:19.911Z,11.46
2023-03-31T02:13:55.661Z,11.45
2023-03-31T02:16:30.512Z,11.44
2023-03-31T02:19:05.448Z,11.45
2023-03-31T02:21:40.845Z,11.43
2023-03-31T02:24:15.921Z,11.45
2023-03-31T02:26:53.336Z,11.43
2023-03-31T02:29:24.579Z,11.47
2023-03-31T02:32:02.733Z,11.42
2023-03-31T02:34:31.978Z,11.34
2023-03-31T02:37:01.013Z,11.41
2023-03-31T02:39:35.999Z,11.40
2023-03-31T02:42:07.524Z,11.36
2023-03-31T02:44:40.323Z,11.43
2023-03-31T02:47:13.069Z,11.40
2023-03-31T02:49:47.144Z,11.45
2023-03-31T02:53:00.888Z,11.36
2023-03-31T02:55:53.431Z,11.35
2023-03-31T02:58:41.654Z,11.34
2023-03-31T03:01:37.665Z,11.38
2023-03-31T03:04:34.127Z,11.36
2023-03-31T03:07:14.803Z,11.31
2023-03-31T03:10:00.314Z,11.34
2023-03-31T03:12:39.320Z,11.36
2023-03-31T03:15:13.903Z,11.32
2023-03-31T03:17:47.630Z,11.37
2023-03-31T03:20:17.430Z,11.28
2023-03-31T03:22:46.532Z,11.32
2023-03-31T03:25:18.232Z,11.23
2023-03-31T03:27:48.494Z,11.16
2023-03-31T03:30:17.439Z,11.16
2023-03-31T03:32:47.840Z,11.15
2023-03-31T03:35:16.817Z,11.11
2023-03-31T03:37:45.836Z,11.13
2023-03-31T03:40:15.431Z,11.13
2023-03-31T03:42:45.338Z,11.04
2023-03-31T03:45:14.667Z,11.00
2023-03-31T03:47:43.865Z,10.95
2023-03-31T03:50:16.097Z,10.93
2023-03-31T03:52:45.785Z,10.81
2023-03-31T03:55:14.859Z,10.78
2023-03-31T03:57:43.861Z,10.77
2023-03-31T04:00:13.697Z,10.77
2023-03-31T04:02:44.437Z,10.66
2023-03-31T04:05:14.918Z,10.66
2023-03-31T04:07:44.047Z,10.62
2023-03-31T04:10:12.934Z,10.57
2023-03-31T04:12:41.940Z,10.55
2023-03-31T04:15:11.942Z,10.53
2023-03-31T04:17:41.059Z,10.53
2023-03-31T04:20:11.767Z,10.52
2023-03-31T04:22:42.342Z,10.58
2023-03-31T04:25:16.743Z,10.50
2023-03-31T04:27:50.826Z,10.56
2023-03-31T04:30:23.709Z,10.55
2023-03-31T04:32:55.571Z,10.56
2023-03-31T04:35:26.693Z,10.54
2023-03-31T04:37:59.049Z,10.55
2023-03-31T04:40:28.172Z,10.57
2023-03-31T04:42:57.140Z,10.61
2023-03-31T04:45:25.930Z,10.68
2023-03-31T04:47:55.019Z,10.74
2023-03-31T04:50:23.823Z,10.80
2023-03-31T04:52:52.880Z,10.83
2023-03-31T04:55:23.129Z,10.87
2023-03-31T04:57:52.589Z,10.89
2023-03-31T05:00:23.260Z,10.94
2023-03-31T05:02:52.729Z,10.97
2023-03-31T05:05:21.746Z,11.03
2023-03-31T05:07:50.930Z,11.06
2023-03-31T05:10:19.905Z,11.11
2023-03-31T05:12:50.460Z,11.13
2023-03-31T05:15:19.633Z,11.13
2023-03-31T05:17:48.852Z,11.15
2023-03-31T05:20:18.061Z,11.11
2023-03-31T05:22:47.853Z,11.16
2023-03-31T05:25:18.825Z,11.18
2023-03-31T05:27:51.156Z,11.25
2023-03-31T05:30:19.937Z,11.29
2023-03-31T05:32:49.000Z,11.25
2023-03-31T05:35:17.995Z,11.29
2023-03-31T05:37:47.124Z,11.32
2023-03-31T05:40:16.282Z,11.33
2023-03-31T05:42:45.265Z,11.37
2023-03-31T05:45:15.376Z,11.40
2023-03-31T05:47:44.442Z,11.37
2023-03-31T05:50:14.809Z,11.41
2023-03-31T05:52:44.057Z,11.43
2023-03-31T05:55:13.326Z,11.42
2023-03-31T05:57:42.369Z,11.50
2023-03-31T06:00:15.003Z,11.50
2023-03-31T06:02:44.152Z,11.62
2023-03-31T06:05:13.020Z,11.67
2023-03-31T06:07:42.022Z,11.75
2023-03-31T06:10:11.477Z,11.87
2023-03-31T06:12:40.473Z,11.96
2023-03-31T06:15:10.383Z,12.06
2023-03-31T06:17:40.872Z,12.09
2023-03-31T06:20:24.519Z,12.24
2023-03-31T06:22:56.292Z,12.24
2023-03-31T06:25:25.154Z,12.25
2023-03-31T06:27:54.136Z,12.35
2023-03-31T06:30:22.918Z,12.38
2023-03-31T06:32:53.354Z,12.29
2023-03-31T06:35:22.125Z,12.37
2023-03-31T06:37:51.206Z,12.42
2023-03-31T06:40:20.372Z,12.33
2023-03-31T06:42:49.461Z,12.39
2023-03-31T06:45:18.967Z,12.47
2023-03-31T06:47:48.199Z,12.52
2023-03-31T06:50:18.916Z,12.60
2023-03-31T06:52:47.976Z,12.63
2023-03-31T06:55:17.013Z,12.65
2023-03-31T06:57:46.043Z,12.70
2023-03-31T07:00:16.615Z,12.70
2023-03-31T07:02:45.718Z,12.83
2023-03-31T07:05:14.605Z,12.85
2023-03-31T07:07:46.503Z,12.84
2023-03-31T07:10:15.508Z,12.92
2023-03-31T07:12:44.698Z,13.21
2023-03-31T07:15:13.546Z,13.50
2023-03-31T07:17:43.133Z,13.79
2023-03-31T07:20:15.038Z,13.95
2023-03-31T07:22:47.608Z,13.94
2023-03-31T07:25:18.958Z,13.89
2023-03-31T07:27:48.071Z,13.75
2023-03-31T07:30:20.283Z,13.60
2023-03-31T07:32:51.513Z,13.57
2023-03-31T07:35:22.023Z,13.49
2023-03-31T07:37:53.989Z,13.56
2023-03-31T07:40:27.161Z,13.65
2023-03-31T07:42:57.008Z,13.70
2023-03-31T07:45:28.268Z,13.72
2023-03-31T07:47:57.412Z,13.69
2023-03-31T07:50:26.440Z,13.67
2023-03-31T07:52:59.406Z,13.56
2023-03-31T07:55:28.232Z,13.58
2023-03-31T07:57:57.233Z,13.58
2023-03-31T08:00:26.377Z,13.60
2023-03-31T08:02:55.435Z,13.59
2023-03-31T08:05:24.361Z,13.58
2023-03-31T08:07:53.512Z,13.53
2023-03-31T08:10:28.015Z,13.59
2023-03-31T08:12:57.555Z,13.70
2023-03-31T08:15:26.442Z,13.79
2023-03-31T08:17:55.550Z,13.83
2023-03-31T08:20:24.493Z,13.84
2023-03-31T08:22:53.631Z,13.89
2023-03-31T08:25:24.625Z,13.97
2023-03-31T08:27:53.759Z,14.04
2023-03-31T08:30:22.818Z,14.20
2023-03-31T08:32:51.899Z,14.25
2023-03-31T08:35:20.651Z,14.52
2023-03-31T08:37:49.673Z,14.74
2023-03-31T08:40:25.321Z,14.94
2023-03-31T08:42:59.361Z,15.18
2023-03-31T08:45:35.439Z,15.43
2023-03-31T08:48:14.877Z,15.44
2023-03-31T08:50:53.991Z,15.68
2023-03-31T08:53:30.348Z,15.78
2023-03-31T08:56:01.685Z,15.85
2023-03-31T08:58:40.616Z,15.97
2023-03-31T09:01:24.530Z,16.14
2023-03-31T09:04:21.051Z,16.40
2023-03-31T09:07:03.131Z,16.54
2023-03-31T09:09:55.298Z,16.58
2023-03-31T09:12:38.968Z,16.57
2023-03-31T09:15:15.944Z,16.40
2023-03-31T09:17:48.947Z,16.29
2023-03-31T09:20:26.142Z,16.16
2023-03-31T09:23:07.834Z,16.26
2023-03-31T09:25:42.349Z,16.19
2023-03-31T09:28:21.865Z,16.41
2023-03-31T09:30:51.925Z,16.33
2023-03-31T09:33:31.848Z,16.38
2023-03-31T09:36:01.467Z,16.39
2023-03-31T09:38:31.347Z,16.55
2023-03-31T09:41:03.033Z,16.79
2023-03-31T09:43:36.267Z,17.02
2023-03-31T09:46:17.217Z,17.29
2023-03-31T09:48:56.879Z,17.29
2023-03-31T09:51:32.830Z,17.44
2023-03-31T09:54:13.550Z,17.42
2023-03-31T09:56:53.945Z,17.31
2023-03-31T09:59:34.131Z,17.24
2023-03-31T10:02:26.738Z,17.36
2023-03-31T10:04:56.385Z,17.61
2023-03-31T10:07:27.552Z,17.79
2023-03-31T10:09:57.585Z,18.00
2023-03-31T10:12:30.182Z,18.03
2023-03-31T10:15:21.006Z,17.84
2023-03-31T10:17:55.451Z,17.56
2023-03-31T10:20:35.475Z,17.33
2023-03-31T10:23:16.577Z,17.27
2023-03-31T10:25:47.516Z,17.25
2023-03-31T10:28:21.103Z,17.22
2023-03-31T10:30:55.003Z,17.20
2023-03-31T10:33:28.229Z,17.19
2023-03-31T10:36:00.477Z,17.32
2023-03-31T10:38:34.993Z,17.43
2023-03-31T10:41:04.912Z,17.61
2023-03-31T10:43:42.916Z,17.69
2023-03-31T10:46:14.094Z,17.66
2023-03-31T10:48:45.105Z,17.79
2023-03-31T10:51:19.060Z,17.87
2023-03-31T10:53:50.905Z,18.34
2023-03-31T10:56:39.877Z,18.68
2023-03-31T10:59:25.237Z,18.99
2023-03-31T11:02:36.381Z,19.07
2023-03-31T11:05:16.715Z,19.12
2023-03-31T11:08:04.828Z,18.97
2023-03-31T11:10:58.936Z,18.98
2023-03-31T11:13:40.479Z,18.91
2023-03-31T11:16:25.258Z,18.94
2023-03-31T11:19:21.132Z,19.57
2023-03-31T11:22:04.110Z,19.42
2023-03-31T11:25:05.544Z,19.05
2023-03-31T11:28:02.362Z,19.14
2023-03-31T11:30:39.475Z,19.15
2023-03-31T11:33:45.684Z,19.14
2023-03-31T11:36:49.567Z,18.99
2023-03-31T11:39:41.829Z,18.80
2023-03-31T11:42:18.531Z,18.46
2023-03-31T11:44:54.725Z,18.39
2023-03-31T11:47:30.570Z,18.25
2023-03-31T11:50:05.990Z,18.19
2023-03-31T11:52:41.405Z,18.28
2023-03-31T11:55:19.438Z,18.23
2023-03-31T11:57:59.682Z,18.13
2023-03-31T12:00:33.098Z,18.30
2023-03-31T12:03:12.452Z,18.48
2023-03-31T12:05:48.733Z,18.53
2023-03-31T12:08:30.623Z,18.70
2023-03-31T12:11:08.855Z,18.93
2023-03-31T12:13:50.427Z,18.97
2023-03-31T12:16:25.122Z,18.90
2023-03-31T12:19:06.141Z,19.05
2023-03-31T12:21:40.152Z,19.30
2023-03-31T12:24:15.142Z,19.09
2023-03-31T12:26:57.773Z,18.90
2023-03-31T12:29:33.525Z,18.92
2023-03-31T12:32:12.148Z,18.90
2023-03-31T12:34:51.322Z,18.88
2023-03-31T12:38:01.703Z,19.08
2023-03-31T12:40:51.304Z,19.03
2023-03-31T12:43:50.460Z,19.14
2023-03-31T12:46:49.665Z,19.17
2023-03-31T12:49:41.335Z,19.12
2023-03-31T12:52:19.507Z,19.20
2023-03-31T12:55:33.897Z,18.94
2023-03-31T12:58:46.034Z,18.71
2023-03-31T13:01:21.662Z,18.59
2023-03-31T13:04:11.329Z,18.50
2023-03-31T13:07:01.643Z,18.29
2023-03-31T13:09:52.293Z,18.07
2023-03-31T13:12:25.717Z,17.94
2023-03-31T13:18:02.087Z,17.20
2023-03-31T13:20:37.818Z,16.80
2023-03-31T13:23:19.810Z,16.52
2023-03-31T13:25:51.979Z,16.26
2023-03-31T13:28:45.250Z,16.10
2023-03-31T13:31:17.438Z,15.98
2023-03-31T13:33:57.643Z,15.98
2023-03-31T13:37:01.386Z,16.12
2023-03-31T13:40:01.971Z,16.28
2023-03-31T13:43:02.317Z,16.46
2023-03-31T13:46:01.408Z,16.62
2023-03-31T13:48:50.704Z,16.72
2023-03-31T13:51:47.094Z,16.81
2023-03-31T13:54:59.617Z,16.95
2023-03-31T13:58:41.162Z,17.05
2023-03-31T14:01:51.450Z,17.15
2023-03-31T14:05:06.274Z,17.36
2023-03-31T14:07:42.958Z,17.60
2023-03-31T14:10:27.431Z,17.80
2023-03-31T14:13:09.197Z,17.94
2023-03-31T14:15:43.856Z,17.80
2023-03-31T14:18:21.542Z,17.71
2023-03-31T14:21:11.359Z,17.50
2023-03-31T14:23:56.555Z,17.37
2023-03-31T14:26:51.726Z,17.31
2023-03-31T14:29:29.753Z,17.14
2023-03-31T14:32:08.379Z,17.10
2023-03-31T14:34:55.880Z,17.07
2023-03-31T14:37:28.227Z,17.03
2023-03-31T14:40:00.037Z,16.94
2023-03-31T14:42:39.540Z,16.93
2023-03-31T14:45:19.986Z,16.91
2023-03-31T14:47:58.181Z,16.88
2023-03-31T14:50:34.973Z,16.90
2023-03-31T14:53:06.107Z,16.89
2023-03-31T14:58:12.452Z,16.78
2023-03-31T15:00:42.699Z,16.76
2023-03-31T15:03:17.836Z,16.71
2023-03-31T15:05:49.123Z,16.67
2023-03-31T15:08:25.258Z,16.55
2023-03-31T15:11:09.764Z,16.46
2023-03-31T15:13:53.034Z,16.40
2023-03-31T15:16:42.269Z,16.36
2023-03-31T15:19:20.636Z,15.98
2023-03-31T15:22:01.738Z,15.59
2023-03-31T15:24:33.210Z,15.17
2023-03-31T15:27:08.598Z,14.71
2023-03-31T15:29:42.809Z,14.44
2023-03-31T15:32:18.953Z,14.03
2023-03-31T15:34:48.456Z,13.75
2023-03-31T15:37:17.563Z,13.47
2023-03-31T15:39:50.164Z,13.39
2023-03-31T15:42:20.466Z,13.16
2023-03-31T15:44:56.788Z,13.29
2023-03-31T15:47:30.572Z,13.24
2023-03-31T15:50:13.220Z,13.21
2023-03-31T15:52:53.129Z,13.26
2023-03-31T15:55:31.276Z,13.29
2023-03-31T15:58:02.410Z,13.39
2023-03-31T16:00:47.400Z,13.44
2023-03-31T16:03:23.534Z,13.41
2023-03-31T16:05:57.995Z,13.52
2023-03-31T16:08:33.840Z,13.38
2023-03-31T16:11:11.191Z,13.32
2023-03-31T16:13:47.940Z,13.37
2023-03-31T16:16:22.305Z,13.25
2023-03-31T16:18:58.081Z,13.26
2023-03-31T16:21:34.968Z,13.21
2023-03-31T16:24:04.159Z,13.14
2023-03-31T16:26:35.737Z,13.07
2023-03-31T16:29:06.231Z,12.95
2023-03-31T16:31:39.595Z,12.96
2023-03-31T16:34:11.946Z,12.91
2023-03-31T16:36:41.226Z,12.95
2023-03-31T16:39:10.104Z,12.98
2023-03-31T16:41:40.704Z,12.96
2023-03-31T16:44:09.599Z,12.96
2023-03-31T16:46:38.817Z,12.95
2023-03-31T16:49:07.802Z,12.94
2023-03-31T16:51:36.988Z,12.87
2023-03-31T16:54:06.319Z,12.89
2023-03-31T16:56:35.594Z,12.87
2023-03-31T16:59:08.265Z,12.83
2023-03-31T17:01:37.633Z,12.79
2023-03-31T17:04:07.036Z,12.80
2023-03-31T17:06:36.433Z,12.81
2023-03-31T17:09:05.566Z,12.81
2023-03-31T17:11:35.129Z,12.87
2023-03-31T17:14:06.428Z,12.79
2023-03-31T17:16:47.362Z,12.83
2023-03-31T17:19:18.132Z,12.85
2023-03-31T17:21:47.321Z,12.81
2023-03-31T17:24:16.398Z,12.82
2023-03-31T17:26:45.724Z,12.79
2023-03-31T17:29:16.764Z,12.70
2023-03-31T17:31:46.117Z,12.63
2023-03-31T17:34:14.902Z,12.51
2023-03-31T17:36:44.550Z,12.43
2023-03-31T17:39:13.364Z,12.30
2023-03-31T17:41:42.434Z,12.26
2023-03-31T17:44:12.262Z,12.19
2023-03-31T17:46:42.854Z,12.13
2023-03-31T17:49:11.674Z,12.10
2023-03-31T17:51:40.727Z,12.08
2023-03-31T17:54:09.452Z,12.07
2023-03-31T17:56:38.973Z,12.03
2023-03-31T17:59:07.689Z,11.99
2023-03-31T18:01:36.816Z,11.89
2023-03-31T18:04:07.015Z,11.89
2023-03-31T18:06:36.099Z,11.82
2023-03-31T18:09:06.063Z,11.76
2023-03-31T18:11:35.230Z,11.76
2023-03-31T18:14:04.476Z,11.73
2023-03-31T18:16:33.991Z,11.71
2023-03-31T18:19:03.159Z,11.70
2023-03-31T18:21:33.556Z,11.64
2023-03-31T18:24:02.733Z,11.58
2023-03-31T18:26:31.829Z,11.55
2023-03-31T18:29:00.682Z,11.50
2023-03-31T18:31:30.877Z,11.50
2023-03-31T18:33:59.721Z,11.42
2023-03-31T18:36:29.831Z,11.39
2023-03-31T18:39:00.120Z,11.38
2023-03-31T18:41:29.909Z,11.40
2023-03-31T18:43:59.028Z,11.34
2023-03-31T18:46:28.209Z,11.31
2023-03-31T18:48:57.013Z,11.34
2023-03-31T18:51:26.087Z,11.36
2023-03-31T18:53:54.931Z,11.43
2023-03-31T18:56:25.294Z,11.41
2023-03-31T18:58:54.081Z,11.45
2023-03-31T19:01:24.221Z,11.42
2023-03-31T19:03:53.115Z,11.42
2023-03-31T19:06:22.515Z,11.47
2023-03-31T19:08:52.014Z,11.51
2023-03-31T19:11:21.067Z,11.55
2023-03-31T19:13:52.772Z,11.51
2023-03-31T19:16:22.068Z,11.50
2023-03-31T19:18:50.952Z,11.48
2023-03-31T19:21:20.246Z,11.48
2023-03-31T19:23:49.340Z,11.46
2023-03-31T19:26:19.788Z,11.44
2023-03-31T19:28:50.128Z,11.48
2023-03-31T19:31:19.268Z,11.37
2023-03-31T19:33:48.450Z,11.34
2023-03-31T19:36:18.269Z,11.35
2023-03-31T19:38:47.051Z,11.35
2023-03-31T19:41:18.238Z,11.38
2023-03-31T19:43:47.990Z,11.40
2023-03-31T19:46:19.760Z,11.37
2023-03-31T19:48:48.578Z,11.36
2023-03-31T19:51:18.963Z,11.37
2023-03-31T19:53:48.044Z,11.38
2023-03-31T19:56:18.906Z,11.37
2023-03-31T19:58:50.152Z,11.34
2023-03-31T20:01:23.402Z,11.35
2023-03-31T20:03:53.166Z,11.35
2023-03-31T20:06:24.915Z,11.35
2023-03-31T20:08:56.119Z,11.33
2023-03-31T20:11:26.118Z,11.35
2023-03-31T20:13:56.267Z,11.33
2023-03-31T20:16:29.310Z,11.31
2023-03-31T20:19:01.354Z,11.36
2023-03-31T20:21:33.018Z,11.25
2023-03-31T20:24:01.915Z,11.23
2023-03-31T20:26:32.649Z,11.23
2023-03-31T20:29:03.992Z,11.19
2023-03-31T20:31:37.654Z,11.21
2023-03-31T20:34:12.260Z,11.25
2023-03-31T20:36:43.923Z,11.23
2023-03-31T20:39:16.195Z,11.21
2023-03-31T20:41:45.913Z,11.19
2023-03-31T20:44:15.828Z,11.21
2023-03-31T20:46:46.719Z,11.19
2023-03-31T20:49:15.636Z,11.14
2023-03-31T20:51:46.458Z,11.13
2023-03-31T20:54:15.375Z,11.11
2023-03-31T20:56:44.715Z,11.11
2023-03-31T20:59:16.300Z,11.11
2023-03-31T21:01:49.405Z,11.11
2023-03-31T21:04:18.327Z,11.13
2023-03-31T21:06:48.944Z,11.13
2023-03-31T21:09:18.497Z,11.12
2023-03-31T21:11:47.761Z,11.17
2023-03-31T21:14:17.877Z,11.18
2023-03-31T21:16:48.769Z,11.19
2023-03-31T21:19:17.562Z,11.16
2023-03-31T21:21:46.597Z,11.17
2023-03-31T21:24:16.364Z,11.23
2023-03-31T21:26:45.487Z,11.25
2023-03-31T21:29:14.394Z,11.14
2023-03-31T21:31:45.030Z,11.10
2023-03-31T21:34:15.252Z,11.15
2023-03-31T21:36:44.278Z,11.17
2023-03-31T21:39:13.076Z,11.14
2023-03-31T21:41:42.312Z,11.16
2023-03-31T21:44:11.194Z,11.12
2023-03-31T21:46:41.228Z,11.14
2023-03-31T21:49:10.033Z,11.21
2023-03-31T21:51:40.518Z,11.20
2023-03-31T21:54:09.239Z,11.20
2023-03-31T21:56:38.294Z,11.18
2023-03-31T21:59:07.362Z,11.15
2023-03-31T22:01:36.371Z,11.15
2023-03-31T22:04:05.183Z,11.18
2023-03-31T22:06:34.628Z,11.22
2023-03-31T22:09:04.923Z,11.14
2023-03-31T22:11:33.993Z,11.07
2023-03-31T22:14:02.764Z,11.08
2023-03-31T22:16:32.125Z,11.13
2023-03-31T22:19:00.973Z,11.19
2023-03-31T22:21:43.589Z,11.25
2023-03-31T22:24:14.542Z,11.28
2023-03-31T22:26:43.714Z,11.33
2023-03-31T22:29:16.602Z,11.35
2023-03-31T22:31:45.701Z,11.36
2023-03-31T22:34:15.543Z,11.37
2023-03-31T22:36:44.576Z,11.39
2023-03-31T22:39:14.739Z,11.40
2023-03-31T22:41:44.314Z,11.39
2023-03-31T22:44:13.241Z,11.44
2023-03-31T22:46:42.576Z,11.46
2023-03-31T22:49:11.343Z,11.47
2023-03-31T22:51:40.847Z,11.46
2023-03-31T22:54:15.759Z,11.39
2023-03-31T22:56:45.442Z,11.33
2023-03-31T22:59:14.656Z,11.35
2023-03-31T23:01:43.761Z,11.33
2023-03-31T23:04:12.579Z,11.28
2023-03-31T23:06:41.581Z,11.25
2023-03-31T23:09:10.507Z,11.25
2023-03-31T23:11:40.947Z,11.29
2023-03-31T23:14:09.818Z,11.30
2023-03-31T23:16:38.995Z,11.31
2023-03-31T23:19:08.150Z,11.32
2023-03-31T23:21:37.479Z,11.36
2023-03-31T23:24:06.781Z,11.36
2023-03-31T23:26:36.142Z,11.35
2023-03-31T23:29:06.720Z,11.36
2023-03-31T23:31:35.895Z,11.32
2023-03-31T23:34:04.677Z,11.33
2023-03-31T23:36:33.793Z,11.32
2023-03-31T23:39:02.803Z,11.35
2023-03-31T23:41:31.806Z,11.35
2023-03-31T23:44:00.723Z,11.38
2023-03-31T23:46:32.099Z,11.38
2023-03-31T23:49:02.691Z,11.37
2023-03-31T23:51:31.793Z,11.39
2023-03-31T23:54:00.737Z,11.37
2023-03-31T23:56:30.643Z,11.35
2023-03-31T23:58:59.615Z,11.31
